Terminal Aerodrome Forecast
Issued by NWS Binghamton, NY

Current Version | Previous Version | Text Only | Print | Product List | Glossary On
Versions: 1 2 3 4 5 6 7 8 9 10 11 12 13 14 15 16
000
FTUS41 KBGM 011100
TAFAVP
TAF
KAVP 011127Z 0112/0212 17003KT 1 1/2SM -SN OVC020
     FM011800 20005KT 3/4SM -SN BR OVC012
     FM020500 24003KT P6SM -SHSN OVC020
     FM020800 28010KT P6SM OVC025=

USA.gov is the U.S. government's official web portal to all federal, state and local government web resources and services.